sensor_id;sensor_type;location;lat;lon;timestamp;P1;durP1;ratioP1;P2;durP2;ratioP2
35891;SDS011;21993;42.672;23.296;2023-04-25T00:00:56;4.07;;;3.67;;
35891;SDS011;21993;42.672;23.296;2023-04-25T00:03:21;3.87;;;3.47;;
35891;SDS011;21993;42.672;23.296;2023-04-25T00:05:47;5.80;;;3.87;;
35891;SDS011;21993;42.672;23.296;2023-04-25T00:08:12;7.30;;;4.43;;
35891;SDS011;21993;42.672;23.296;2023-04-25T00:10:38;4.50;;;4.10;;
35891;SDS011;21993;42.672;23.296;2023-04-25T00:13:03;5.57;;;4.13;;
35891;SDS011;21993;42.672;23.296;2023-04-25T00:15:29;4.70;;;4.20;;
35891;SDS011;21993;42.672;23.296;2023-04-25T00:17:57;4.40;;;3.70;;
35891;SDS011;21993;42.672;23.296;2023-04-25T00:20:23;3.53;;;2.80;;
35891;SDS011;21993;42.672;23.296;2023-04-25T00:22:49;4.53;;;2.73;;
35891;SDS011;21993;42.672;23.296;2023-04-25T00:25:15;3.00;;;2.70;;
35891;SDS011;21993;42.672;23.296;2023-04-25T00:27:41;5.07;;;3.23;;
35891;SDS011;21993;42.672;23.296;2023-04-25T00:30:07;4.47;;;4.00;;
35891;SDS011;21993;42.672;23.296;2023-04-25T00:32:33;4.47;;;4.07;;
35891;SDS011;21993;42.672;23.296;2023-04-25T00:34:58;5.30;;;3.27;;
35891;SDS011;21993;42.672;23.296;2023-04-25T00:37:24;3.93;;;3.47;;
35891;SDS011;21993;42.672;23.296;2023-04-25T00:39:50;3.43;;;3.10;;
35891;SDS011;21993;42.672;23.296;2023-04-25T00:42:16;4.37;;;3.97;;
35891;SDS011;21993;42.672;23.296;2023-04-25T00:44:41;5.37;;;4.17;;
35891;SDS011;21993;42.672;23.296;2023-04-25T00:47:08;4.73;;;4.23;;
35891;SDS011;21993;42.672;23.296;2023-04-25T00:49:35;5.17;;;4.77;;
35891;SDS011;21993;42.672;23.296;2023-04-25T00:52:01;4.87;;;4.37;;
35891;SDS011;21993;42.672;23.296;2023-04-25T00:54:26;5.87;;;4.57;;
35891;SDS011;21993;42.672;23.296;2023-04-25T00:56:52;4.73;;;4.33;;
35891;SDS011;21993;42.672;23.296;2023-04-25T00:59:18;5.03;;;4.53;;
35891;SDS011;21993;42.672;23.296;2023-04-25T01:01:45;6.20;;;5.23;;
35891;SDS011;21993;42.672;23.296;2023-04-25T01:04:10;6.10;;;4.80;;
35891;SDS011;21993;42.672;23.296;2023-04-25T01:06:36;6.67;;;5.47;;
35891;SDS011;21993;42.672;23.296;2023-04-25T01:09:01;7.13;;;5.40;;
35891;SDS011;21993;42.672;23.296;2023-04-25T01:11:27;9.40;;;5.63;;
35891;SDS011;21993;42.672;23.296;2023-04-25T01:13:53;7.80;;;6.23;;
35891;SDS011;21993;42.672;23.296;2023-04-25T01:16:18;6.80;;;5.63;;
35891;SDS011;21993;42.672;23.296;2023-04-25T01:18:44;7.77;;;5.73;;
35891;SDS011;21993;42.672;23.296;2023-04-25T01:21:11;7.17;;;5.80;;
35891;SDS011;21993;42.672;23.296;2023-04-25T01:23:38;8.17;;;6.53;;
35891;SDS011;21993;42.672;23.296;2023-04-25T01:26:05;11.87;;;6.77;;
35891;SDS011;21993;42.672;23.296;2023-04-25T01:28:33;8.03;;;6.53;;
35891;SDS011;21993;42.672;23.296;2023-04-25T01:30:59;10.53;;;6.20;;
35891;SDS011;21993;42.672;23.296;2023-04-25T01:33:25;7.17;;;6.03;;
35891;SDS011;21993;42.672;23.296;2023-04-25T01:35:50;8.93;;;6.23;;
35891;SDS011;21993;42.672;23.296;2023-04-25T01:38:16;7.60;;;6.17;;
35891;SDS011;21993;42.672;23.296;2023-04-25T01:40:41;8.00;;;6.30;;
35891;SDS011;21993;42.672;23.296;2023-04-25T01:43:10;7.93;;;6.00;;
35891;SDS011;21993;42.672;23.296;2023-04-25T01:45:40;8.17;;;6.77;;
35891;SDS011;21993;42.672;23.296;2023-04-25T01:48:09;8.47;;;6.63;;
35891;SDS011;21993;42.672;23.296;2023-04-25T01:50:35;10.93;;;7.50;;
35891;SDS011;21993;42.672;23.296;2023-04-25T01:53:00;10.80;;;7.20;;
35891;SDS011;21993;42.672;23.296;2023-04-25T01:55:27;7.73;;;6.27;;
35891;SDS011;21993;42.672;23.296;2023-04-25T01:57:53;6.57;;;5.47;;
35891;SDS011;21993;42.672;23.296;2023-04-25T02:00:18;6.67;;;5.40;;
35891;SDS011;21993;42.672;23.296;2023-04-25T02:02:43;7.50;;;5.70;;
35891;SDS011;21993;42.672;23.296;2023-04-25T02:05:09;7.00;;;5.23;;
35891;SDS011;21993;42.672;23.296;2023-04-25T02:07:35;8.17;;;6.50;;
35891;SDS011;21993;42.672;23.296;2023-04-25T02:10:00;6.80;;;5.53;;
35891;SDS011;21993;42.672;23.296;2023-04-25T02:12:26;9.03;;;6.53;;
35891;SDS011;21993;42.672;23.296;2023-04-25T02:14:52;8.83;;;7.07;;
35891;SDS011;21993;42.672;23.296;2023-04-25T02:17:18;11.37;;;6.80;;
35891;SDS011;21993;42.672;23.296;2023-04-25T02:19:43;7.70;;;6.30;;
35891;SDS011;21993;42.672;23.296;2023-04-25T02:22:09;12.50;;;7.30;;
35891;SDS011;21993;42.672;23.296;2023-04-25T02:24:35;8.10;;;6.23;;
35891;SDS011;21993;42.672;23.296;2023-04-25T02:27:01;6.80;;;5.40;;
35891;SDS011;21993;42.672;23.296;2023-04-25T02:29:26;5.40;;;4.83;;
35891;SDS011;21993;42.672;23.296;2023-04-25T02:31:52;8.00;;;4.93;;
35891;SDS011;21993;42.672;23.296;2023-04-25T02:34:17;9.23;;;5.53;;
35891;SDS011;21993;42.672;23.296;2023-04-25T02:36:43;7.20;;;5.33;;
35891;SDS011;21993;42.672;23.296;2023-04-25T02:39:08;5.77;;;4.93;;
35891;SDS011;21993;42.672;23.296;2023-04-25T02:41:33;6.50;;;5.20;;
35891;SDS011;21993;42.672;23.296;2023-04-25T02:43:59;6.23;;;5.50;;
35891;SDS011;21993;42.672;23.296;2023-04-25T02:46:24;7.27;;;5.30;;
35891;SDS011;21993;42.672;23.296;2023-04-25T02:48:50;8.77;;;6.57;;
35891;SDS011;21993;42.672;23.296;2023-04-25T02:51:15;7.23;;;6.20;;
35891;SDS011;21993;42.672;23.296;2023-04-25T02:53:41;7.13;;;5.73;;
35891;SDS011;21993;42.672;23.296;2023-04-25T02:56:07;7.00;;;5.87;;
35891;SDS011;21993;42.672;23.296;2023-04-25T02:58:32;7.23;;;6.20;;
35891;SDS011;21993;42.672;23.296;2023-04-25T03:00:57;7.00;;;6.00;;
35891;SDS011;21993;42.672;23.296;2023-04-25T03:03:23;9.13;;;6.47;;
35891;SDS011;21993;42.672;23.296;2023-04-25T03:05:49;8.03;;;6.13;;
35891;SDS011;21993;42.672;23.296;2023-04-25T03:08:15;7.00;;;5.70;;
35891;SDS011;21993;42.672;23.296;2023-04-25T03:10:41;7.83;;;5.63;;
35891;SDS011;21993;42.672;23.296;2023-04-25T03:13:07;8.70;;;6.27;;
35891;SDS011;21993;42.672;23.296;2023-04-25T03:15:32;7.07;;;6.27;;
35891;SDS011;21993;42.672;23.296;2023-04-25T03:17:57;8.40;;;6.23;;
35891;SDS011;21993;42.672;23.296;2023-04-25T03:20:23;8.80;;;5.90;;
35891;SDS011;21993;42.672;23.296;2023-04-25T03:22:48;7.83;;;7.03;;
35891;SDS011;21993;42.672;23.296;2023-04-25T03:25:14;10.47;;;7.10;;
35891;SDS011;21993;42.672;23.296;2023-04-25T03:27:39;7.83;;;6.20;;
35891;SDS011;21993;42.672;23.296;2023-04-25T03:30:05;11.43;;;8.70;;
35891;SDS011;21993;42.672;23.296;2023-04-25T03:32:31;6.67;;;5.50;;
35891;SDS011;21993;42.672;23.296;2023-04-25T03:34:57;7.37;;;5.60;;
35891;SDS011;21993;42.672;23.296;2023-04-25T03:37:22;8.03;;;6.00;;
35891;SDS011;21993;42.672;23.296;2023-04-25T03:39:47;6.73;;;5.37;;
35891;SDS011;21993;42.672;23.296;2023-04-25T03:42:13;7.13;;;5.93;;
35891;SDS011;21993;42.672;23.296;2023-04-25T03:44:38;7.97;;;6.53;;
35891;SDS011;21993;42.672;23.296;2023-04-25T03:47:03;7.60;;;6.27;;
35891;SDS011;21993;42.672;23.296;2023-04-25T03:49:29;10.10;;;6.57;;
35891;SDS011;21993;42.672;23.296;2023-04-25T03:51:54;8.77;;;6.70;;
35891;SDS011;21993;42.672;23.296;2023-04-25T03:54:20;9.00;;;6.70;;
35891;SDS011;21993;42.672;23.296;2023-04-25T03:56:45;7.07;;;6.17;;
35891;SDS011;21993;42.672;23.296;2023-04-25T03:59:11;8.73;;;6.40;;
35891;SDS011;21993;42.672;23.296;2023-04-25T04:01:36;7.13;;;5.67;;
35891;SDS011;21993;42.672;23.296;2023-04-25T04:04:02;8.47;;;6.13;;
35891;SDS011;21993;42.672;23.296;2023-04-25T04:06:27;8.57;;;5.93;;
35891;SDS011;21993;42.672;23.296;2023-04-25T04:08:53;12.67;;;6.10;;
35891;SDS011;21993;42.672;23.296;2023-04-25T04:11:19;7.77;;;6.10;;
35891;SDS011;21993;42.672;23.296;2023-04-25T04:13:45;6.70;;;5.47;;
35891;SDS011;21993;42.672;23.296;2023-04-25T04:16:10;7.93;;;6.43;;
35891;SDS011;21993;42.672;23.296;2023-04-25T04:18:36;6.93;;;5.33;;
35891;SDS011;21993;42.672;23.296;2023-04-25T04:21:02;7.90;;;6.67;;
35891;SDS011;21993;42.672;23.296;2023-04-25T04:23:27;6.10;;;5.23;;
35891;SDS011;21993;42.672;23.296;2023-04-25T04:25:53;8.50;;;6.00;;
35891;SDS011;21993;42.672;23.296;2023-04-25T04:28:19;11.07;;;6.60;;
35891;SDS011;21993;42.672;23.296;2023-04-25T04:30:45;8.30;;;6.03;;
35891;SDS011;21993;42.672;23.296;2023-04-25T04:33:11;7.77;;;6.53;;
35891;SDS011;21993;42.672;23.296;2023-04-25T04:35:37;9.37;;;6.47;;
35891;SDS011;21993;42.672;23.296;2023-04-25T04:38:02;7.83;;;6.43;;
35891;SDS011;21993;42.672;23.296;2023-04-25T04:40:27;8.67;;;6.80;;
35891;SDS011;21993;42.672;23.296;2023-04-25T04:42:53;9.97;;;7.83;;
35891;SDS011;21993;42.672;23.296;2023-04-25T04:45:21;8.13;;;7.00;;
35891;SDS011;21993;42.672;23.296;2023-04-25T04:47:47;8.90;;;6.97;;
35891;SDS011;21993;42.672;23.296;2023-04-25T04:50:13;8.57;;;6.80;;
35891;SDS011;21993;42.672;23.296;2023-04-25T04:52:40;8.50;;;6.03;;
35891;SDS011;21993;42.672;23.296;2023-04-25T04:55:05;8.13;;;6.60;;
35891;SDS011;21993;42.672;23.296;2023-04-25T04:57:31;8.53;;;7.03;;
35891;SDS011;21993;42.672;23.296;2023-04-25T04:59:58;7.93;;;6.53;;
35891;SDS011;21993;42.672;23.296;2023-04-25T05:02:23;10.87;;;7.57;;
35891;SDS011;21993;42.672;23.296;2023-04-25T05:04:49;10.97;;;8.67;;
35891;SDS011;21993;42.672;23.296;2023-04-25T05:07:16;12.03;;;7.83;;
35891;SDS011;21993;42.672;23.296;2023-04-25T05:09:42;11.47;;;8.10;;
35891;SDS011;21993;42.672;23.296;2023-04-25T05:12:07;12.83;;;8.77;;
35891;SDS011;21993;42.672;23.296;2023-04-25T05:14:32;9.57;;;7.13;;
35891;SDS011;21993;42.672;23.296;2023-04-25T05:16:58;10.47;;;7.43;;
35891;SDS011;21993;42.672;23.296;2023-04-25T05:19:23;9.43;;;8.03;;
35891;SDS011;21993;42.672;23.296;2023-04-25T05:21:49;10.03;;;7.30;;
35891;SDS011;21993;42.672;23.296;2023-04-25T05:24:14;9.17;;;7.70;;
35891;SDS011;21993;42.672;23.296;2023-04-25T05:26:40;11.87;;;7.97;;
35891;SDS011;21993;42.672;23.296;2023-04-25T05:29:06;11.70;;;8.23;;
35891;SDS011;21993;42.672;23.296;2023-04-25T05:31:32;12.83;;;8.33;;
35891;SDS011;21993;42.672;23.296;2023-04-25T05:33:57;10.13;;;8.30;;
35891;SDS011;21993;42.672;23.296;2023-04-25T05:36:23;11.50;;;8.77;;
35891;SDS011;21993;42.672;23.296;2023-04-25T05:38:48;13.13;;;9.03;;
35891;SDS011;21993;42.672;23.296;2023-04-25T05:41:14;13.80;;;10.13;;
35891;SDS011;21993;42.672;23.296;2023-04-25T05:43:40;14.80;;;10.53;;
35891;SDS011;21993;42.672;23.296;2023-04-25T05:46:10;13.50;;;10.00;;
35891;SDS011;21993;42.672;23.296;2023-04-25T05:48:36;17.17;;;11.67;;
35891;SDS011;21993;42.672;23.296;2023-04-25T05:51:02;19.43;;;12.10;;
35891;SDS011;21993;42.672;23.296;2023-04-25T05:53:28;16.73;;;11.00;;
35891;SDS011;21993;42.672;23.296;2023-04-25T05:55:53;17.40;;;10.80;;
35891;SDS011;21993;42.672;23.296;2023-04-25T05:58:18;14.63;;;10.10;;
35891;SDS011;21993;42.672;23.296;2023-04-25T06:00:44;14.10;;;10.63;;
35891;SDS011;21993;42.672;23.296;2023-04-25T06:03:11;14.33;;;10.27;;
35891;SDS011;21993;42.672;23.296;2023-04-25T06:05:39;12.33;;;8.50;;
35891;SDS011;21993;42.672;23.296;2023-04-25T06:08:06;12.83;;;10.00;;
35891;SDS011;21993;42.672;23.296;2023-04-25T06:10:31;12.73;;;10.13;;
35891;SDS011;21993;42.672;23.296;2023-04-25T06:12:57;22.20;;;14.43;;
35891;SDS011;21993;42.672;23.296;2023-04-25T06:15:22;14.03;;;10.17;;
35891;SDS011;21993;42.672;23.296;2023-04-25T06:17:48;14.97;;;9.87;;
35891;SDS011;21993;42.672;23.296;2023-04-25T06:20:14;12.77;;;9.30;;
35891;SDS011;21993;42.672;23.296;2023-04-25T06:22:39;13.33;;;9.83;;
35891;SDS011;21993;42.672;23.296;2023-04-25T06:25:05;14.47;;;9.10;;
35891;SDS011;21993;42.672;23.296;2023-04-25T06:27:32;14.67;;;10.07;;
35891;SDS011;21993;42.672;23.296;2023-04-25T06:29:58;14.43;;;10.77;;
35891;SDS011;21993;42.672;23.296;2023-04-25T06:32:23;14.00;;;9.67;;
35891;SDS011;21993;42.672;23.296;2023-04-25T06:34:49;12.27;;;9.07;;
35891;SDS011;21993;42.672;23.296;2023-04-25T06:37:15;8.40;;;7.50;;
35891;SDS011;21993;42.672;23.296;2023-04-25T06:39:41;20.30;;;13.03;;
35891;SDS011;21993;42.672;23.296;2023-04-25T06:42:06;11.07;;;8.40;;
35891;SDS011;21993;42.672;23.296;2023-04-25T06:44:32;9.60;;;7.30;;
35891;SDS011;21993;42.672;23.296;2023-04-25T06:46:57;9.97;;;7.77;;
35891;SDS011;21993;42.672;23.296;2023-04-25T06:49:22;9.33;;;7.00;;
35891;SDS011;21993;42.672;23.296;2023-04-25T06:51:48;8.37;;;6.03;;
35891;SDS011;21993;42.672;23.296;2023-04-25T06:54:13;7.40;;;5.67;;
35891;SDS011;21993;42.672;23.296;2023-04-25T06:56:39;8.67;;;5.73;;
35891;SDS011;21993;42.672;23.296;2023-04-25T06:59:05;8.47;;;6.40;;
35891;SDS011;21993;42.672;23.296;2023-04-25T07:01:30;11.27;;;7.67;;
35891;SDS011;21993;42.672;23.296;2023-04-25T07:03:55;11.30;;;7.47;;
35891;SDS011;21993;42.672;23.296;2023-04-25T07:06:21;9.33;;;7.13;;
35891;SDS011;21993;42.672;23.296;2023-04-25T07:08:46;10.77;;;7.17;;
35891;SDS011;21993;42.672;23.296;2023-04-25T07:11:12;10.90;;;7.10;;
35891;SDS011;21993;42.672;23.296;2023-04-25T07:13:37;10.60;;;6.70;;
35891;SDS011;21993;42.672;23.296;2023-04-25T07:16:03;10.57;;;7.10;;
35891;SDS011;21993;42.672;23.296;2023-04-25T07:18:28;11.77;;;6.80;;
35891;SDS011;21993;42.672;23.296;2023-04-25T07:20:54;12.57;;;8.33;;
35891;SDS011;21993;42.672;23.296;2023-04-25T07:23:19;13.17;;;7.53;;
35891;SDS011;21993;42.672;23.296;2023-04-25T07:25:45;10.17;;;7.00;;
35891;SDS011;21993;42.672;23.296;2023-04-25T07:28:10;13.27;;;7.00;;
35891;SDS011;21993;42.672;23.296;2023-04-25T07:30:36;9.43;;;6.80;;
35891;SDS011;21993;42.672;23.296;2023-04-25T07:33:01;9.07;;;7.17;;
35891;SDS011;21993;42.672;23.296;2023-04-25T07:35:27;10.87;;;7.17;;
35891;SDS011;21993;42.672;23.296;2023-04-25T07:37:52;14.23;;;7.40;;
35891;SDS011;21993;42.672;23.296;2023-04-25T07:40:18;10.43;;;6.87;;
35891;SDS011;21993;42.672;23.296;2023-04-25T07:42:43;9.53;;;6.70;;
35891;SDS011;21993;42.672;23.296;2023-04-25T07:45:09;10.23;;;7.13;;
35891;SDS011;21993;42.672;23.296;2023-04-25T07:47:35;9.40;;;7.00;;
35891;SDS011;21993;42.672;23.296;2023-04-25T07:50:01;10.33;;;6.90;;
35891;SDS011;21993;42.672;23.296;2023-04-25T07:52:27;9.20;;;7.57;;
35891;SDS011;21993;42.672;23.296;2023-04-25T07:54:53;8.93;;;6.83;;
35891;SDS011;21993;42.672;23.296;2023-04-25T07:57:20;10.80;;;7.00;;
35891;SDS011;21993;42.672;23.296;2023-04-25T07:59:46;10.50;;;6.50;;
35891;SDS011;21993;42.672;23.296;2023-04-25T08:02:11;10.60;;;7.67;;
35891;SDS011;21993;42.672;23.296;2023-04-25T08:04:37;12.23;;;7.30;;
35891;SDS011;21993;42.672;23.296;2023-04-25T08:07:02;12.20;;;7.10;;
35891;SDS011;21993;42.672;23.296;2023-04-25T08:09:28;8.37;;;6.97;;
35891;SDS011;21993;42.672;23.296;2023-04-25T08:11:54;8.73;;;6.57;;
35891;SDS011;21993;42.672;23.296;2023-04-25T08:14:19;9.97;;;7.43;;
35891;SDS011;21993;42.672;23.296;2023-04-25T08:16:45;7.33;;;6.63;;
35891;SDS011;21993;42.672;23.296;2023-04-25T08:19:10;12.40;;;7.03;;
35891;SDS011;21993;42.672;23.296;2023-04-25T08:21:36;10.23;;;6.83;;
35891;SDS011;21993;42.672;23.296;2023-04-25T08:24:01;10.93;;;6.60;;
35891;SDS011;21993;42.672;23.296;2023-04-25T08:26:28;8.97;;;5.87;;
35891;SDS011;21993;42.672;23.296;2023-04-25T08:28:53;10.00;;;5.63;;
35891;SDS011;21993;42.672;23.296;2023-04-25T08:31:19;8.57;;;6.13;;
35891;SDS011;21993;42.672;23.296;2023-04-25T08:33:45;13.33;;;6.43;;
35891;SDS011;21993;42.672;23.296;2023-04-25T08:36:11;11.13;;;5.80;;
35891;SDS011;21993;42.672;23.296;2023-04-25T08:38:36;8.30;;;6.37;;
35891;SDS011;21993;42.672;23.296;2023-04-25T08:41:02;7.43;;;6.07;;
35891;SDS011;21993;42.672;23.296;2023-04-25T08:43:28;9.90;;;6.00;;
35891;SDS011;21993;42.672;23.296;2023-04-25T08:45:57;7.03;;;5.33;;
35891;SDS011;21993;42.672;23.296;2023-04-25T08:48:25;7.10;;;5.80;;
35891;SDS011;21993;42.672;23.296;2023-04-25T08:50:53;8.40;;;5.67;;
35891;SDS011;21993;42.672;23.296;2023-04-25T08:53:27;5.90;;;5.27;;
35891;SDS011;21993;42.672;23.296;2023-04-25T08:55:55;8.13;;;4.50;;
35891;SDS011;21993;42.672;23.296;2023-04-25T08:58:21;7.97;;;4.80;;
35891;SDS011;21993;42.672;23.296;2023-04-25T09:00:48;5.00;;;3.97;;
35891;SDS011;21993;42.672;23.296;2023-04-25T09:03:15;6.50;;;4.33;;
35891;SDS011;21993;42.672;23.296;2023-04-25T09:05:41;7.80;;;5.17;;
35891;SDS011;21993;42.672;23.296;2023-04-25T09:08:07;6.70;;;5.33;;
35891;SDS011;21993;42.672;23.296;2023-04-25T09:10:32;7.17;;;5.40;;
35891;SDS011;21993;42.672;23.296;2023-04-25T09:13:05;6.00;;;3.90;;
35891;SDS011;21993;42.672;23.296;2023-04-25T09:15:33;6.67;;;5.30;;
35891;SDS011;21993;42.672;23.296;2023-04-25T09:18:26;5.57;;;4.70;;
35891;SDS011;21993;42.672;23.296;2023-04-25T09:20:52;8.07;;;5.40;;
35891;SDS011;21993;42.672;23.296;2023-04-25T09:23:19;7.50;;;5.07;;
35891;SDS011;21993;42.672;23.296;2023-04-25T09:25:49;12.57;;;6.80;;
35891;SDS011;21993;42.672;23.296;2023-04-25T09:28:17;6.13;;;4.73;;
35891;SDS011;21993;42.672;23.296;2023-04-25T09:30:53;6.00;;;4.67;;
35891;SDS011;21993;42.672;23.296;2023-04-25T09:33:20;8.00;;;5.37;;
35891;SDS011;21993;42.672;23.296;2023-04-25T09:35:52;6.60;;;4.50;;
35891;SDS011;21993;42.672;23.296;2023-04-25T09:38:20;5.83;;;4.67;;
35891;SDS011;21993;42.672;23.296;2023-04-25T09:40:46;10.97;;;5.00;;
35891;SDS011;21993;42.672;23.296;2023-04-25T09:43:23;7.80;;;4.70;;
35891;SDS011;21993;42.672;23.296;2023-04-25T09:45:50;8.67;;;5.80;;
35891;SDS011;21993;42.672;23.296;2023-04-25T09:48:18;3.07;;;2.70;;
35891;SDS011;21993;42.672;23.296;2023-04-25T09:51:06;7.43;;;4.63;;
35891;SDS011;21993;42.672;23.296;2023-04-25T09:53:36;3.07;;;2.50;;
35891;SDS011;21993;42.672;23.296;2023-04-25T09:56:06;1.93;;;1.50;;
35891;SDS011;21993;42.672;23.296;2023-04-25T09:58:32;5.57;;;2.73;;
35891;SDS011;21993;42.672;23.296;2023-04-25T10:01:00;2.47;;;2.00;;
35891;SDS011;21993;42.672;23.296;2023-04-25T10:03:29;4.90;;;2.03;;
35891;SDS011;21993;42.672;23.296;2023-04-25T10:05:57;2.07;;;1.97;;
35891;SDS011;21993;42.672;23.296;2023-04-25T10:08:25;4.27;;;3.20;;
35891;SDS011;21993;42.672;23.296;2023-04-25T10:10:54;3.47;;;2.87;;
35891;SDS011;21993;42.672;23.296;2023-04-25T10:13:20;2.50;;;2.30;;
35891;SDS011;21993;42.672;23.296;2023-04-25T10:15:46;2.40;;;1.70;;
35891;SDS011;21993;42.672;23.296;2023-04-25T10:18:12;1.57;;;1.40;;
35891;SDS011;21993;42.672;23.296;2023-04-25T10:20:38;1.63;;;1.50;;
35891;SDS011;21993;42.672;23.296;2023-04-25T10:23:06;1.37;;;1.27;;
35891;SDS011;21993;42.672;23.296;2023-04-25T10:25:41;1.40;;;1.30;;
35891;SDS011;21993;42.672;23.296;2023-04-25T10:28:07;5.77;;;1.50;;
35891;SDS011;21993;42.672;23.296;2023-04-25T10:30:33;1.70;;;1.60;;
35891;SDS011;21993;42.672;23.296;2023-04-25T10:32:59;2.33;;;1.60;;
35891;SDS011;21993;42.672;23.296;2023-04-25T10:35:28;4.30;;;2.00;;
35891;SDS011;21993;42.672;23.296;2023-04-25T10:38:08;4.90;;;2.40;;
35891;SDS011;21993;42.672;23.296;2023-04-25T10:40:34;4.17;;;2.90;;
35891;SDS011;21993;42.672;23.296;2023-04-25T10:45:53;6.60;;;2.70;;
35891;SDS011;21993;42.672;23.296;2023-04-25T10:48:28;3.03;;;2.03;;
35891;SDS011;21993;42.672;23.296;2023-04-25T10:51:07;2.70;;;1.60;;
35891;SDS011;21993;42.672;23.296;2023-04-25T10:53:34;2.17;;;1.80;;
35891;SDS011;21993;42.672;23.296;2023-04-25T10:56:00;1.77;;;1.67;;
35891;SDS011;21993;42.672;23.296;2023-04-25T10:58:25;3.80;;;1.70;;
35891;SDS011;21993;42.672;23.296;2023-04-25T11:00:52;3.03;;;2.00;;
35891;SDS011;21993;42.672;23.296;2023-04-25T11:03:17;1.47;;;1.40;;
35891;SDS011;21993;42.672;23.296;2023-04-25T11:05:46;2.40;;;1.30;;
35891;SDS011;21993;42.672;23.296;2023-04-25T11:08:14;1.10;;;1.10;;
35891;SDS011;21993;42.672;23.296;2023-04-25T11:10:52;2.67;;;1.30;;
35891;SDS011;21993;42.672;23.296;2023-04-25T11:13:20;1.37;;;1.30;;
35891;SDS011;21993;42.672;23.296;2023-04-25T11:15:50;3.80;;;1.90;;
35891;SDS011;21993;42.672;23.296;2023-04-25T11:18:16;3.13;;;1.70;;
35891;SDS011;21993;42.672;23.296;2023-04-25T11:20:43;2.80;;;1.40;;
35891;SDS011;21993;42.672;23.296;2023-04-25T11:23:08;5.90;;;1.50;;
35891;SDS011;21993;42.672;23.296;2023-04-25T11:25:34;4.40;;;1.53;;
35891;SDS011;21993;42.672;23.296;2023-04-25T11:27:59;1.73;;;1.33;;
35891;SDS011;21993;42.672;23.296;2023-04-25T11:30:28;1.37;;;1.27;;
35891;SDS011;21993;42.672;23.296;2023-04-25T11:32:55;1.63;;;1.50;;
35891;SDS011;21993;42.672;23.296;2023-04-25T11:35:21;1.73;;;1.43;;
35891;SDS011;21993;42.672;23.296;2023-04-25T11:37:48;4.90;;;2.30;;
35891;SDS011;21993;42.672;23.296;2023-04-25T11:40:14;1.93;;;1.70;;
35891;SDS011;21993;42.672;23.296;2023-04-25T11:42:43;2.60;;;2.40;;
35891;SDS011;21993;42.672;23.296;2023-04-25T11:45:10;4.73;;;1.70;;
35891;SDS011;21993;42.672;23.296;2023-04-25T11:47:35;3.63;;;2.00;;
35891;SDS011;21993;42.672;23.296;2023-04-25T11:50:02;2.10;;;1.50;;
35891;SDS011;21993;42.672;23.296;2023-04-25T11:52:42;4.37;;;1.50;;
35891;SDS011;21993;42.672;23.296;2023-04-25T11:55:18;1.73;;;1.40;;
35891;SDS011;21993;42.672;23.296;2023-04-25T11:57:45;1.57;;;1.23;;
35891;SDS011;21993;42.672;23.296;2023-04-25T12:00:14;1.30;;;1.20;;
35891;SDS011;21993;42.672;23.296;2023-04-25T12:02:51;3.50;;;1.50;;
35891;SDS011;21993;42.672;23.296;2023-04-25T12:05:18;3.17;;;1.70;;
35891;SDS011;21993;42.672;23.296;2023-04-25T12:07:45;2.57;;;1.60;;
35891;SDS011;21993;42.672;23.296;2023-04-25T12:10:13;1.90;;;1.80;;
35891;SDS011;21993;42.672;23.296;2023-04-25T12:12:42;1.40;;;1.30;;
35891;SDS011;21993;42.672;23.296;2023-04-25T12:17:35;2.63;;;1.73;;
35891;SDS011;21993;42.672;23.296;2023-04-25T12:20:06;1.90;;;1.43;;
35891;SDS011;21993;42.672;23.296;2023-04-25T12:22:35;2.27;;;1.83;;
35891;SDS011;21993;42.672;23.296;2023-04-25T12:25:01;2.90;;;1.70;;
35891;SDS011;21993;42.672;23.296;2023-04-25T12:27:30;2.03;;;1.70;;
35891;SDS011;21993;42.672;23.296;2023-04-25T12:29:56;3.17;;;1.63;;
35891;SDS011;21993;42.672;23.296;2023-04-25T12:32:22;2.23;;;2.07;;
35891;SDS011;21993;42.672;23.296;2023-04-25T12:34:48;1.83;;;1.60;;
35891;SDS011;21993;42.672;23.296;2023-04-25T12:37:13;1.60;;;1.50;;
35891;SDS011;21993;42.672;23.296;2023-04-25T12:39:39;2.93;;;1.67;;
35891;SDS011;21993;42.672;23.296;2023-04-25T12:42:04;2.77;;;1.70;;
35891;SDS011;21993;42.672;23.296;2023-04-25T12:44:32;1.70;;;1.60;;
35891;SDS011;21993;42.672;23.296;2023-04-25T12:46:58;2.63;;;1.80;;
35891;SDS011;21993;42.672;23.296;2023-04-25T12:49:24;4.73;;;2.50;;
35891;SDS011;21993;42.672;23.296;2023-04-25T12:51:50;4.07;;;2.03;;
35891;SDS011;21993;42.672;23.296;2023-04-25T12:54:16;2.77;;;2.03;;
35891;SDS011;21993;42.672;23.296;2023-04-25T12:56:42;1.80;;;1.70;;
35891;SDS011;21993;42.672;23.296;2023-04-25T12:59:07;4.07;;;2.20;;
35891;SDS011;21993;42.672;23.296;2023-04-25T13:01:33;2.93;;;2.50;;
35891;SDS011;21993;42.672;23.296;2023-04-25T13:03:58;3.17;;;2.57;;
35891;SDS011;21993;42.672;23.296;2023-04-25T13:06:24;3.23;;;2.60;;
35891;SDS011;21993;42.672;23.296;2023-04-25T13:08:51;4.30;;;3.20;;
35891;SDS011;21993;42.672;23.296;2023-04-25T13:11:16;3.67;;;2.77;;
35891;SDS011;21993;42.672;23.296;2023-04-25T13:13:42;4.53;;;2.70;;
35891;SDS011;21993;42.672;23.296;2023-04-25T13:16:09;5.60;;;3.13;;
35891;SDS011;21993;42.672;23.296;2023-04-25T13:18:34;3.03;;;2.30;;
35891;SDS011;21993;42.672;23.296;2023-04-25T13:21:00;2.40;;;2.03;;
35891;SDS011;21993;42.672;23.296;2023-04-25T13:23:26;4.97;;;2.60;;
35891;SDS011;21993;42.672;23.296;2023-04-25T13:25:53;3.43;;;2.37;;
35891;SDS011;21993;42.672;23.296;2023-04-25T13:28:18;4.70;;;2.80;;
35891;SDS011;21993;42.672;23.296;2023-04-25T13:30:43;2.53;;;2.33;;
35891;SDS011;21993;42.672;23.296;2023-04-25T13:33:09;4.93;;;2.50;;
35891;SDS011;21993;42.672;23.296;2023-04-25T13:35:35;5.43;;;2.43;;
35891;SDS011;21993;42.672;23.296;2023-04-25T13:38:02;4.07;;;2.40;;
35891;SDS011;21993;42.672;23.296;2023-04-25T13:40:28;3.50;;;2.27;;
35891;SDS011;21993;42.672;23.296;2023-04-25T13:42:54;5.30;;;2.43;;
35891;SDS011;21993;42.672;23.296;2023-04-25T13:45:20;4.30;;;2.70;;
35891;SDS011;21993;42.672;23.296;2023-04-25T13:47:46;5.07;;;2.10;;
35891;SDS011;21993;42.672;23.296;2023-04-25T13:50:11;3.87;;;2.47;;
35891;SDS011;21993;42.672;23.296;2023-04-25T13:52:37;2.83;;;2.10;;
35891;SDS011;21993;42.672;23.296;2023-04-25T13:55:02;2.93;;;2.50;;
35891;SDS011;21993;42.672;23.296;2023-04-25T13:57:30;1.87;;;1.70;;
35891;SDS011;21993;42.672;23.296;2023-04-25T13:59:56;2.80;;;1.87;;
35891;SDS011;21993;42.672;23.296;2023-04-25T14:02:21;1.73;;;1.60;;
35891;SDS011;21993;42.672;23.296;2023-04-25T14:04:47;1.80;;;1.70;;
35891;SDS011;21993;42.672;23.296;2023-04-25T14:07:13;4.77;;;2.17;;
35891;SDS011;21993;42.672;23.296;2023-04-25T14:09:41;2.77;;;1.93;;
35891;SDS011;21993;42.672;23.296;2023-04-25T14:12:06;2.50;;;2.30;;
35891;SDS011;21993;42.672;23.296;2023-04-25T14:14:32;2.73;;;2.10;;
35891;SDS011;21993;42.672;23.296;2023-04-25T14:16:57;15.53;;;14.03;;
35891;SDS011;21993;42.672;23.296;2023-04-25T14:19:23;3.57;;;3.27;;
35891;SDS011;21993;42.672;23.296;2023-04-25T14:21:49;3.50;;;2.40;;
35891;SDS011;21993;42.672;23.296;2023-04-25T14:24:14;2.20;;;2.00;;
35891;SDS011;21993;42.672;23.296;2023-04-25T14:26:40;3.37;;;2.33;;
35891;SDS011;21993;42.672;23.296;2023-04-25T14:29:07;3.23;;;2.63;;
35891;SDS011;21993;42.672;23.296;2023-04-25T14:31:33;2.40;;;2.20;;